sensor_id;sensor_type;location;lat;lon;timestamp;P1;durP1;ratioP1;P2;durP2;ratioP2
20296;SDS011;10307;40.100;18.336;2023-02-13T00:02:13;9.93;;;4.10;;
20296;SDS011;10307;40.100;18.336;2023-02-13T00:04:40;9.90;;;3.75;;
20296;SDS011;10307;40.100;18.336;2023-02-13T00:07:09;12.50;;;3.58;;
20296;SDS011;10307;40.100;18.336;2023-02-13T00:09:36;9.00;;;3.22;;
20296;SDS011;10307;40.100;18.336;2023-02-13T00:12:03;9.05;;;3.33;;
20296;SDS011;10307;40.100;18.336;2023-02-13T00:14:33;10.32;;;3.33;;
20296;SDS011;10307;40.100;18.336;2023-02-13T00:17:02;9.30;;;3.20;;
20296;SDS011;10307;40.100;18.336;2023-02-13T00:19:29;10.30;;;3.53;;
20296;SDS011;10307;40.100;18.336;2023-02-13T00:21:55;10.38;;;3.90;;
20296;SDS011;10307;40.100;18.336;2023-02-13T00:24:21;9.80;;;3.33;;
20296;SDS011;10307;40.100;18.336;2023-02-13T00:26:48;7.20;;;3.63;;
20296;SDS011;10307;40.100;18.336;2023-02-13T00:29:14;10.05;;;3.90;;
20296;SDS011;10307;40.100;18.336;2023-02-13T00:31:40;9.82;;;3.90;;
20296;SDS011;10307;40.100;18.336;2023-02-13T00:34:06;10.95;;;3.45;;
20296;SDS011;10307;40.100;18.336;2023-02-13T00:36:34;7.72;;;3.60;;
20296;SDS011;10307;40.100;18.336;2023-02-13T00:39:00;10.93;;;3.88;;
20296;SDS011;10307;40.100;18.336;2023-02-13T00:41:27;8.75;;;3.67;;
20296;SDS011;10307;40.100;18.336;2023-02-13T00:43:53;10.13;;;3.63;;
20296;SDS011;10307;40.100;18.336;2023-02-13T00:46:19;10.43;;;3.97;;
20296;SDS011;10307;40.100;18.336;2023-02-13T00:48:45;11.15;;;3.85;;
20296;SDS011;10307;40.100;18.336;2023-02-13T00:51:12;8.65;;;4.75;;
20296;SDS011;10307;40.100;18.336;2023-02-13T00:53:38;10.95;;;3.97;;
20296;SDS011;10307;40.100;18.336;2023-02-13T00:56:05;10.55;;;3.78;;
20296;SDS011;10307;40.100;18.336;2023-02-13T00:58:32;8.23;;;4.03;;
20296;SDS011;10307;40.100;18.336;2023-02-13T01:00:58;11.50;;;4.18;;
20296;SDS011;10307;40.100;18.336;2023-02-13T01:03:25;9.73;;;4.05;;
20296;SDS011;10307;40.100;18.336;2023-02-13T01:05:51;7.88;;;3.58;;
20296;SDS011;10307;40.100;18.336;2023-02-13T01:08:18;9.93;;;4.20;;
20296;SDS011;10307;40.100;18.336;2023-02-13T01:10:46;7.88;;;3.95;;
20296;SDS011;10307;40.100;18.336;2023-02-13T01:13:14;11.88;;;4.00;;
20296;SDS011;10307;40.100;18.336;2023-02-13T01:15:43;7.80;;;3.72;;
20296;SDS011;10307;40.100;18.336;2023-02-13T01:18:11;9.52;;;4.60;;
20296;SDS011;10307;40.100;18.336;2023-02-13T01:20:40;10.07;;;4.30;;
20296;SDS011;10307;40.100;18.336;2023-02-13T01:23:08;18.52;;;5.57;;
20296;SDS011;10307;40.100;18.336;2023-02-13T01:25:38;13.77;;;4.40;;
20296;SDS011;10307;40.100;18.336;2023-02-13T01:28:06;12.25;;;4.50;;
20296;SDS011;10307;40.100;18.336;2023-02-13T01:30:32;9.18;;;3.85;;
20296;SDS011;10307;40.100;18.336;2023-02-13T01:32:59;11.60;;;4.63;;
20296;SDS011;10307;40.100;18.336;2023-02-13T01:35:25;13.93;;;4.95;;
20296;SDS011;10307;40.100;18.336;2023-02-13T01:37:52;15.02;;;5.72;;
20296;SDS011;10307;40.100;18.336;2023-02-13T01:40:19;13.00;;;5.15;;
20296;SDS011;10307;40.100;18.336;2023-02-13T01:42:45;11.45;;;4.95;;
20296;SDS011;10307;40.100;18.336;2023-02-13T01:45:25;10.35;;;4.95;;
20296;SDS011;10307;40.100;18.336;2023-02-13T01:47:56;11.38;;;4.63;;
20296;SDS011;10307;40.100;18.336;2023-02-13T01:50:40;11.88;;;4.57;;
20296;SDS011;10307;40.100;18.336;2023-02-13T01:53:16;12.32;;;4.50;;
20296;SDS011;10307;40.100;18.336;2023-02-13T01:55:54;11.55;;;5.03;;
20296;SDS011;10307;40.100;18.336;2023-02-13T01:58:26;11.82;;;4.63;;
20296;SDS011;10307;40.100;18.336;2023-02-13T02:00:55;11.95;;;4.30;;
20296;SDS011;10307;40.100;18.336;2023-02-13T02:03:33;11.55;;;5.07;;
20296;SDS011;10307;40.100;18.336;2023-02-13T02:06:17;10.80;;;4.60;;
20296;SDS011;10307;40.100;18.336;2023-02-13T02:08:52;12.60;;;4.80;;
20296;SDS011;10307;40.100;18.336;2023-02-13T02:11:26;10.07;;;4.68;;
20296;SDS011;10307;40.100;18.336;2023-02-13T02:14:03;13.60;;;5.47;;
20296;SDS011;10307;40.100;18.336;2023-02-13T02:16:33;11.65;;;4.45;;
20296;SDS011;10307;40.100;18.336;2023-02-13T02:19:03;11.55;;;4.82;;
20296;SDS011;10307;40.100;18.336;2023-02-13T02:27:26;14.00;;;5.43;;
20296;SDS011;10307;40.100;18.336;2023-02-13T02:33:02;17.40;;;5.05;;
20296;SDS011;10307;40.100;18.336;2023-02-13T02:38:21;12.40;;;5.82;;
20296;SDS011;10307;40.100;18.336;2023-02-13T02:41:04;13.65;;;6.13;;
20296;SDS011;10307;40.100;18.336;2023-02-13T02:44:05;10.65;;;4.35;;
20296;SDS011;10307;40.100;18.336;2023-02-13T02:47:06;17.83;;;4.93;;
20296;SDS011;10307;40.100;18.336;2023-02-13T02:49:59;14.43;;;5.13;;
20296;SDS011;10307;40.100;18.336;2023-02-13T03:01:04;10.32;;;4.85;;
20296;SDS011;10307;40.100;18.336;2023-02-13T03:03:53;9.05;;;4.18;;
20296;SDS011;10307;40.100;18.336;2023-02-13T03:06:58;12.20;;;4.85;;
20296;SDS011;10307;40.100;18.336;2023-02-13T03:09:31;11.45;;;4.65;;
20296;SDS011;10307;40.100;18.336;2023-02-13T03:12:21;11.48;;;5.45;;
20296;SDS011;10307;40.100;18.336;2023-02-13T03:15:08;11.93;;;5.35;;
20296;SDS011;10307;40.100;18.336;2023-02-13T03:17:35;10.98;;;4.38;;
20296;SDS011;10307;40.100;18.336;2023-02-13T03:23:15;10.63;;;5.15;;
20296;SDS011;10307;40.100;18.336;2023-02-13T03:35:00;12.80;;;4.93;;
20296;SDS011;10307;40.100;18.336;2023-02-13T03:38:19;10.38;;;5.97;;
20296;SDS011;10307;40.100;18.336;2023-02-13T03:40:59;10.82;;;4.75;;
20296;SDS011;10307;40.100;18.336;2023-02-13T03:46:16;12.45;;;5.15;;
20296;SDS011;10307;40.100;18.336;2023-02-13T03:48:44;11.55;;;4.95;;
20296;SDS011;10307;40.100;18.336;2023-02-13T03:51:35;11.77;;;5.13;;
20296;SDS011;10307;40.100;18.336;2023-02-13T03:54:15;11.27;;;5.47;;
20296;SDS011;10307;40.100;18.336;2023-02-13T03:57:08;10.15;;;5.13;;
20296;SDS011;10307;40.100;18.336;2023-02-13T03:59:54;14.90;;;6.78;;
20296;SDS011;10307;40.100;18.336;2023-02-13T04:02:24;14.05;;;5.80;;
20296;SDS011;10307;40.100;18.336;2023-02-13T04:07:23;13.00;;;5.53;;
20296;SDS011;10307;40.100;18.336;2023-02-13T04:09:57;10.07;;;4.82;;
20296;SDS011;10307;40.100;18.336;2023-02-13T04:12:35;14.10;;;5.35;;
20296;SDS011;10307;40.100;18.336;2023-02-13T04:15:30;11.75;;;4.85;;
20296;SDS011;10307;40.100;18.336;2023-02-13T04:18:16;10.52;;;5.28;;
20296;SDS011;10307;40.100;18.336;2023-02-13T04:20:46;11.70;;;5.50;;
20296;SDS011;10307;40.100;18.336;2023-02-13T04:23:13;12.38;;;5.78;;
20296;SDS011;10307;40.100;18.336;2023-02-13T04:25:41;13.13;;;5.65;;
20296;SDS011;10307;40.100;18.336;2023-02-13T04:28:11;11.63;;;6.05;;
20296;SDS011;10307;40.100;18.336;2023-02-13T04:30:37;13.95;;;5.63;;
20296;SDS011;10307;40.100;18.336;2023-02-13T04:33:04;13.82;;;6.20;;
20296;SDS011;10307;40.100;18.336;2023-02-13T04:35:30;14.48;;;6.53;;
20296;SDS011;10307;40.100;18.336;2023-02-13T04:37:56;12.25;;;5.55;;
20296;SDS011;10307;40.100;18.336;2023-02-13T04:40:22;12.13;;;5.28;;
20296;SDS011;10307;40.100;18.336;2023-02-13T04:42:49;13.55;;;5.22;;
20296;SDS011;10307;40.100;18.336;2023-02-13T04:45:15;9.93;;;4.88;;
20296;SDS011;10307;40.100;18.336;2023-02-13T04:47:42;11.90;;;5.50;;
20296;SDS011;10307;40.100;18.336;2023-02-13T04:50:14;10.85;;;5.32;;
20296;SDS011;10307;40.100;18.336;2023-02-13T04:52:40;12.20;;;5.15;;
20296;SDS011;10307;40.100;18.336;2023-02-13T04:55:06;11.15;;;5.10;;
20296;SDS011;10307;40.100;18.336;2023-02-13T04:57:33;16.00;;;6.05;;
20296;SDS011;10307;40.100;18.336;2023-02-13T04:59:59;12.60;;;6.78;;
20296;SDS011;10307;40.100;18.336;2023-02-13T05:02:25;15.18;;;5.80;;
20296;SDS011;10307;40.100;18.336;2023-02-13T05:04:51;16.33;;;5.57;;
20296;SDS011;10307;40.100;18.336;2023-02-13T05:07:18;11.85;;;5.60;;
20296;SDS011;10307;40.100;18.336;2023-02-13T05:09:44;13.23;;;6.07;;
20296;SDS011;10307;40.100;18.336;2023-02-13T05:12:10;11.77;;;6.50;;
20296;SDS011;10307;40.100;18.336;2023-02-13T05:14:36;15.90;;;7.03;;
20296;SDS011;10307;40.100;18.336;2023-02-13T05:17:03;18.30;;;9.88;;
20296;SDS011;10307;40.100;18.336;2023-02-13T05:19:29;22.38;;;10.93;;
20296;SDS011;10307;40.100;18.336;2023-02-13T05:21:55;19.55;;;10.50;;
20296;SDS011;10307;40.100;18.336;2023-02-13T05:24:40;20.02;;;10.90;;
20296;SDS011;10307;40.100;18.336;2023-02-13T05:27:06;22.27;;;11.25;;
20296;SDS011;10307;40.100;18.336;2023-02-13T05:29:32;18.38;;;9.85;;
20296;SDS011;10307;40.100;18.336;2023-02-13T05:31:58;20.40;;;9.52;;
20296;SDS011;10307;40.100;18.336;2023-02-13T05:34:25;16.67;;;9.18;;
20296;SDS011;10307;40.100;18.336;2023-02-13T05:36:53;16.90;;;9.05;;
20296;SDS011;10307;40.100;18.336;2023-02-13T05:39:19;15.05;;;7.88;;
20296;SDS011;10307;40.100;18.336;2023-02-13T05:41:46;12.35;;;6.45;;
20296;SDS011;10307;40.100;18.336;2023-02-13T05:44:13;14.88;;;7.15;;
20296;SDS011;10307;40.100;18.336;2023-02-13T05:46:40;13.98;;;6.70;;
20296;SDS011;10307;40.100;18.336;2023-02-13T05:49:09;12.32;;;6.30;;
20296;SDS011;10307;40.100;18.336;2023-02-13T05:51:36;14.32;;;7.45;;
20296;SDS011;10307;40.100;18.336;2023-02-13T05:54:03;16.13;;;6.93;;
20296;SDS011;10307;40.100;18.336;2023-02-13T05:56:29;15.10;;;7.95;;
20296;SDS011;10307;40.100;18.336;2023-02-13T05:58:55;20.60;;;9.75;;
20296;SDS011;10307;40.100;18.336;2023-02-13T06:01:22;17.65;;;9.93;;
20296;SDS011;10307;40.100;18.336;2023-02-13T06:03:49;15.65;;;8.93;;
20296;SDS011;10307;40.100;18.336;2023-02-13T06:06:15;16.60;;;8.38;;
20296;SDS011;10307;40.100;18.336;2023-02-13T06:08:42;14.82;;;8.45;;
20296;SDS011;10307;40.100;18.336;2023-02-13T06:11:10;14.70;;;7.70;;
20296;SDS011;10307;40.100;18.336;2023-02-13T06:13:37;15.40;;;7.60;;
20296;SDS011;10307;40.100;18.336;2023-02-13T06:16:06;11.30;;;5.97;;
20296;SDS011;10307;40.100;18.336;2023-02-13T06:18:33;11.90;;;5.50;;
20296;SDS011;10307;40.100;18.336;2023-02-13T06:20:59;11.23;;;5.75;;
20296;SDS011;10307;40.100;18.336;2023-02-13T06:23:26;13.95;;;6.50;;
20296;SDS011;10307;40.100;18.336;2023-02-13T06:25:53;11.10;;;5.75;;
20296;SDS011;10307;40.100;18.336;2023-02-13T06:28:19;15.52;;;7.03;;
20296;SDS011;10307;40.100;18.336;2023-02-13T06:30:46;10.68;;;5.80;;
20296;SDS011;10307;40.100;18.336;2023-02-13T06:33:13;13.82;;;7.15;;
20296;SDS011;10307;40.100;18.336;2023-02-13T06:35:40;11.63;;;5.95;;
20296;SDS011;10307;40.100;18.336;2023-02-13T06:38:06;12.75;;;5.43;;
20296;SDS011;10307;40.100;18.336;2023-02-13T06:40:32;11.05;;;5.72;;
20296;SDS011;10307;40.100;18.336;2023-02-13T06:42:59;13.18;;;5.95;;
20296;SDS011;10307;40.100;18.336;2023-02-13T06:45:25;10.70;;;5.72;;
20296;SDS011;10307;40.100;18.336;2023-02-13T06:47:51;12.20;;;5.28;;
20296;SDS011;10307;40.100;18.336;2023-02-13T06:50:18;12.98;;;6.00;;
20296;SDS011;10307;40.100;18.336;2023-02-13T06:52:45;11.70;;;5.97;;
20296;SDS011;10307;40.100;18.336;2023-02-13T06:55:12;13.50;;;6.43;;
20296;SDS011;10307;40.100;18.336;2023-02-13T06:57:40;12.85;;;6.93;;
20296;SDS011;10307;40.100;18.336;2023-02-13T07:00:07;18.13;;;9.43;;
20296;SDS011;10307;40.100;18.336;2023-02-13T07:02:38;21.55;;;8.82;;
20296;SDS011;10307;40.100;18.336;2023-02-13T07:05:05;18.95;;;8.18;;
20296;SDS011;10307;40.100;18.336;2023-02-13T07:07:33;15.07;;;8.23;;
20296;SDS011;10307;40.100;18.336;2023-02-13T07:10:00;18.48;;;10.68;;
20296;SDS011;10307;40.100;18.336;2023-02-13T07:12:26;20.48;;;10.20;;
20296;SDS011;10307;40.100;18.336;2023-02-13T07:14:53;20.73;;;10.32;;
20296;SDS011;10307;40.100;18.336;2023-02-13T07:17:19;17.83;;;7.45;;
20296;SDS011;10307;40.100;18.336;2023-02-13T07:19:45;11.82;;;6.90;;
20296;SDS011;10307;40.100;18.336;2023-02-13T07:22:11;14.02;;;7.47;;
20296;SDS011;10307;40.100;18.336;2023-02-13T07:24:37;14.02;;;7.43;;
20296;SDS011;10307;40.100;18.336;2023-02-13T07:27:04;12.07;;;6.47;;
20296;SDS011;10307;40.100;18.336;2023-02-13T07:29:30;13.18;;;6.45;;
20296;SDS011;10307;40.100;18.336;2023-02-13T07:31:56;14.95;;;6.93;;
20296;SDS011;10307;40.100;18.336;2023-02-13T07:34:22;13.75;;;6.45;;
20296;SDS011;10307;40.100;18.336;2023-02-13T07:36:49;13.52;;;6.28;;
20296;SDS011;10307;40.100;18.336;2023-02-13T07:39:15;15.13;;;5.60;;
20296;SDS011;10307;40.100;18.336;2023-02-13T07:41:42;12.18;;;6.78;;
20296;SDS011;10307;40.100;18.336;2023-02-13T07:44:08;12.40;;;6.22;;
20296;SDS011;10307;40.100;18.336;2023-02-13T07:46:35;15.30;;;7.55;;
20296;SDS011;10307;40.100;18.336;2023-02-13T07:49:02;18.20;;;9.75;;
20296;SDS011;10307;40.100;18.336;2023-02-13T07:51:28;13.77;;;8.63;;
20296;SDS011;10307;40.100;18.336;2023-02-13T07:53:55;13.02;;;7.10;;
20296;SDS011;10307;40.100;18.336;2023-02-13T07:56:21;14.93;;;6.15;;
20296;SDS011;10307;40.100;18.336;2023-02-13T07:58:47;10.70;;;6.65;;
20296;SDS011;10307;40.100;18.336;2023-02-13T08:01:14;12.43;;;6.55;;
20296;SDS011;10307;40.100;18.336;2023-02-13T08:03:41;12.82;;;6.53;;
20296;SDS011;10307;40.100;18.336;2023-02-13T08:06:08;12.27;;;6.60;;
20296;SDS011;10307;40.100;18.336;2023-02-13T08:08:34;11.45;;;6.82;;
20296;SDS011;10307;40.100;18.336;2023-02-13T08:11:02;21.42;;;7.32;;
20296;SDS011;10307;40.100;18.336;2023-02-13T08:13:49;13.55;;;6.95;;
20296;SDS011;10307;40.100;18.336;2023-02-13T08:16:15;17.88;;;9.20;;
20296;SDS011;10307;40.100;18.336;2023-02-13T08:18:42;24.33;;;11.15;;
20296;SDS011;10307;40.100;18.336;2023-02-13T08:21:08;21.83;;;10.63;;
20296;SDS011;10307;40.100;18.336;2023-02-13T08:23:34;19.20;;;9.10;;
20296;SDS011;10307;40.100;18.336;2023-02-13T08:26:00;12.60;;;7.32;;
20296;SDS011;10307;40.100;18.336;2023-02-13T08:28:28;16.85;;;7.20;;
20296;SDS011;10307;40.100;18.336;2023-02-13T08:30:54;16.15;;;7.80;;
20296;SDS011;10307;40.100;18.336;2023-02-13T08:33:21;13.63;;;7.82;;
20296;SDS011;10307;40.100;18.336;2023-02-13T08:35:47;12.75;;;6.15;;
20296;SDS011;10307;40.100;18.336;2023-02-13T08:38:13;11.05;;;5.28;;
20296;SDS011;10307;40.100;18.336;2023-02-13T08:40:40;9.45;;;4.78;;
20296;SDS011;10307;40.100;18.336;2023-02-13T08:43:06;10.88;;;5.38;;
20296;SDS011;10307;40.100;18.336;2023-02-13T08:45:32;13.30;;;5.68;;
20296;SDS011;10307;40.100;18.336;2023-02-13T08:48:00;10.40;;;5.40;;
20296;SDS011;10307;40.100;18.336;2023-02-13T08:50:28;12.00;;;5.35;;
20296;SDS011;10307;40.100;18.336;2023-02-13T08:52:54;18.98;;;6.40;;
20296;SDS011;10307;40.100;18.336;2023-02-13T08:55:22;13.00;;;6.50;;
20296;SDS011;10307;40.100;18.336;2023-02-13T08:57:48;13.70;;;6.10;;
20296;SDS011;10307;40.100;18.336;2023-02-13T09:00:14;13.90;;;7.22;;
20296;SDS011;10307;40.100;18.336;2023-02-13T09:02:41;16.58;;;7.78;;
20296;SDS011;10307;40.100;18.336;2023-02-13T09:05:07;16.42;;;7.85;;
20296;SDS011;10307;40.100;18.336;2023-02-13T09:07:33;15.77;;;9.18;;
20296;SDS011;10307;40.100;18.336;2023-02-13T09:10:00;23.00;;;10.25;;
20296;SDS011;10307;40.100;18.336;2023-02-13T09:12:26;12.93;;;5.78;;
20296;SDS011;10307;40.100;18.336;2023-02-13T09:14:52;10.07;;;4.32;;
20296;SDS011;10307;40.100;18.336;2023-02-13T09:17:18;10.13;;;4.63;;
20296;SDS011;10307;40.100;18.336;2023-02-13T09:19:44;10.25;;;4.70;;
20296;SDS011;10307;40.100;18.336;2023-02-13T09:22:11;14.98;;;6.93;;
20296;SDS011;10307;40.100;18.336;2023-02-13T09:24:37;17.05;;;9.18;;
20296;SDS011;10307;40.100;18.336;2023-02-13T09:27:04;13.73;;;7.72;;
20296;SDS011;10307;40.100;18.336;2023-02-13T09:29:30;12.00;;;6.57;;
20296;SDS011;10307;40.100;18.336;2023-02-13T09:31:58;12.45;;;5.70;;
20296;SDS011;10307;40.100;18.336;2023-02-13T09:34:25;10.20;;;5.20;;
20296;SDS011;10307;40.100;18.336;2023-02-13T09:36:52;15.55;;;6.10;;
20296;SDS011;10307;40.100;18.336;2023-02-13T09:39:19;10.75;;;5.80;;
20296;SDS011;10307;40.100;18.336;2023-02-13T09:41:46;10.30;;;5.75;;
20296;SDS011;10307;40.100;18.336;2023-02-13T09:49:51;12.07;;;6.70;;
20296;SDS011;10307;40.100;18.336;2023-02-13T09:52:21;13.13;;;6.70;;
20296;SDS011;10307;40.100;18.336;2023-02-13T09:54:48;13.07;;;6.55;;
20296;SDS011;10307;40.100;18.336;2023-02-13T09:59:55;14.02;;;6.97;;
20296;SDS011;10307;40.100;18.336;2023-02-13T10:18:33;18.88;;;8.57;;
20296;SDS011;10307;40.100;18.336;2023-02-13T10:21:08;16.13;;;9.68;;
20296;SDS011;10307;40.100;18.336;2023-02-13T10:23:42;21.33;;;12.90;;
20296;SDS011;10307;40.100;18.336;2023-02-13T10:28:43;22.73;;;13.27;;
20296;SDS011;10307;40.100;18.336;2023-02-13T10:31:33;21.52;;;12.55;;
20296;SDS011;10307;40.100;18.336;2023-02-13T10:34:01;24.42;;;13.60;;
20296;SDS011;10307;40.100;18.336;2023-02-13T10:36:31;23.25;;;13.50;;
20296;SDS011;10307;40.100;18.336;2023-02-13T10:39:04;24.92;;;12.55;;
20296;SDS011;10307;40.100;18.336;2023-02-13T10:41:53;23.23;;;11.90;;
20296;SDS011;10307;40.100;18.336;2023-02-13T10:47:35;14.70;;;7.80;;
20296;SDS011;10307;40.100;18.336;2023-02-13T10:52:57;10.55;;;5.55;;
20296;SDS011;10307;40.100;18.336;2023-02-13T11:02:39;10.32;;;5.40;;
20296;SDS011;10307;40.100;18.336;2023-02-13T11:04:42;17.17;;;6.65;;
20296;SDS011;10307;40.100;18.336;2023-02-13T11:07:10;15.80;;;7.20;;
20296;SDS011;10307;40.100;18.336;2023-02-13T11:09:42;12.02;;;6.05;;
20296;SDS011;10307;40.100;18.336;2023-02-13T11:12:32;12.70;;;5.45;;
20296;SDS011;10307;40.100;18.336;2023-02-13T11:15:03;10.05;;;5.32;;
20296;SDS011;10307;40.100;18.336;2023-02-13T11:17:33;11.73;;;6.72;;
20296;SDS011;10307;40.100;18.336;2023-02-13T11:20:03;12.48;;;6.78;;
20296;SDS011;10307;40.100;18.336;2023-02-13T11:22:47;17.23;;;7.53;;
20296;SDS011;10307;40.100;18.336;2023-02-13T11:27:45;24.45;;;10.80;;
20296;SDS011;10307;40.100;18.336;2023-02-13T11:33:17;11.73;;;6.90;;
20296;SDS011;10307;40.100;18.336;2023-02-13T11:36:03;11.90;;;6.75;;
20296;SDS011;10307;40.100;18.336;2023-02-13T11:38:32;11.88;;;6.90;;
20296;SDS011;10307;40.100;18.336;2023-02-13T11:41:05;13.52;;;7.85;;
20296;SDS011;10307;40.100;18.336;2023-02-13T11:43:33;13.38;;;6.45;;
20296;SDS011;10307;40.100;18.336;2023-02-13T11:46:17;15.88;;;7.35;;
20296;SDS011;10307;40.100;18.336;2023-02-13T11:49:01;16.35;;;9.10;;
20296;SDS011;10307;40.100;18.336;2023-02-13T11:59:47;13.30;;;7.57;;
20296;SDS011;10307;40.100;18.336;2023-02-13T12:02:17;14.98;;;8.85;;
20296;SDS011;10307;40.100;18.336;2023-02-13T12:04:46;15.18;;;7.72;;
20296;SDS011;10307;40.100;18.336;2023-02-13T12:07:27;14.80;;;9.05;;
20296;SDS011;10307;40.100;18.336;2023-02-13T12:09:59;12.50;;;7.25;;
20296;SDS011;10307;40.100;18.336;2023-02-13T12:12:53;16.08;;;8.45;;
20296;SDS011;10307;40.100;18.336;2023-02-13T12:15:27;15.30;;;8.10;;
20296;SDS011;10307;40.100;18.336;2023-02-13T12:20:28;13.30;;;8.20;;
20296;SDS011;10307;40.100;18.336;2023-02-13T12:36:52;21.23;;;9.77;;
20296;SDS011;10307;40.100;18.336;2023-02-13T12:39:43;25.15;;;12.05;;
20296;SDS011;10307;40.100;18.336;2023-02-13T12:44:56;17.33;;;10.13;;
20296;SDS011;10307;40.100;18.336;2023-02-13T12:47:58;22.58;;;12.05;;
20296;SDS011;10307;40.100;18.336;2023-02-13T12:56:53;13.48;;;7.00;;
20296;SDS011;10307;40.100;18.336;2023-02-13T13:02:32;16.05;;;9.23;;
20296;SDS011;10307;40.100;18.336;2023-02-13T13:13:25;15.52;;;7.50;;
20296;SDS011;10307;40.100;18.336;2023-02-13T13:19:22;14.82;;;7.68;;
20296;SDS011;10307;40.100;18.336;2023-02-13T13:21:59;13.98;;;7.53;;
20296;SDS011;10307;40.100;18.336;2023-02-13T13:27:21;16.60;;;7.78;;
20296;SDS011;10307;40.100;18.336;2023-02-13T13:29:57;16.73;;;9.00;;
20296;SDS011;10307;40.100;18.336;2023-02-13T13:32:54;11.68;;;6.30;;
20296;SDS011;10307;40.100;18.336;2023-02-13T13:35:28;12.20;;;6.82;;
20296;SDS011;10307;40.100;18.336;2023-02-13T13:37:57;13.05;;;8.00;;
20296;SDS011;10307;40.100;18.336;2023-02-13T13:40:45;12.60;;;6.95;;
20296;SDS011;10307;40.100;18.336;2023-02-13T13:43:42;11.45;;;5.93;;
20296;SDS011;10307;40.100;18.336;2023-02-13T13:52:20;12.82;;;6.57;;
20296;SDS011;10307;40.100;18.336;2023-02-13T13:54:52;13.68;;;7.32;;
20296;SDS011;10307;40.100;18.336;2023-02-13T13:57:20;12.20;;;6.97;;
20296;SDS011;10307;40.100;18.336;2023-02-13T13:59:54;13.50;;;6.50;;
20296;SDS011;10307;40.100;18.336;2023-02-13T14:05:31;12.30;;;6.43;;
20296;SDS011;10307;40.100;18.336;2023-02-13T14:07:59;12.23;;;6.72;;
20296;SDS011;10307;40.100;18.336;2023-02-13T14:18:41;14.98;;;5.82;;
20296;SDS011;10307;40.100;18.336;2023-02-13T14:20:51;13.98;;;6.47;;
20296;SDS011;10307;40.100;18.336;2023-02-13T14:31:25;13.43;;;6.80;;
20296;SDS011;10307;40.100;18.336;2023-02-13T14:34:04;14.25;;;7.45;;
20296;SDS011;10307;40.100;18.336;2023-02-13T14:36:34;12.63;;;6.82;;
20296;SDS011;10307;40.100;18.336;2023-02-13T14:39:05;11.93;;;5.75;;
20296;SDS011;10307;40.100;18.336;2023-02-13T14:44:42;11.25;;;6.45;;
20296;SDS011;10307;40.100;18.336;2023-02-13T14:47:21;11.48;;;5.93;;
20296;SDS011;10307;40.100;18.336;2023-02-13T14:49:58;12.25;;;6.43;;
20296;SDS011;10307;40.100;18.336;2023-02-13T14:52:29;12.35;;;6.13;;
20296;SDS011;10307;40.100;18.336;2023-02-13T14:55:04;13.30;;;6.57;;
20296;SDS011;10307;40.100;18.336;2023-02-13T14:57:41;12.43;;;6.70;;
20296;SDS011;10307;40.100;18.336;2023-02-13T15:02:52;10.80;;;5.93;;
20296;SDS011;10307;40.100;18.336;2023-02-13T15:05:23;20.02;;;10.43;;
20296;SDS011;10307;40.100;18.336;2023-02-13T15:10:45;15.30;;;8.10;;
20296;SDS011;10307;40.100;18.336;2023-02-13T15:13:14;15.75;;;7.75;;
20296;SDS011;10307;40.100;18.336;2023-02-13T15:15:52;14.38;;;6.78;;
20296;SDS011;10307;40.100;18.336;2023-02-13T15:18:29;13.00;;;6.53;;
20296;SDS011;10307;40.100;18.336;2023-02-13T15:21:01;13.20;;;7.00;;
20296;SDS011;10307;40.100;18.336;2023-02-13T15:23:28;16.05;;;7.32;;
20296;SDS011;10307;40.100;18.336;2023-02-13T15:25:56;13.43;;;8.38;;
20296;SDS011;10307;40.100;18.336;2023-02-13T15:28:30;13.02;;;6.53;;
20296;SDS011;10307;40.100;18.336;2023-02-13T15:30:58;14.73;;;7.22;;
20296;SDS011;10307;40.100;18.336;2023-02-13T15:33:28;15.65;;;8.45;;
20296;SDS011;10307;40.100;18.336;2023-02-13T15:36:00;17.10;;;7.55;;
20296;SDS011;10307;40.100;18.336;2023-02-13T15:38:30;17.45;;;9.88;;
20296;SDS011;10307;40.100;18.336;2023-02-13T15:43:36;13.77;;;7.38;;
20296;SDS011;10307;40.100;18.336;2023-02-13T15:46:16;13.05;;;7.47;;
20296;SDS011;10307;40.100;18.336;2023-02-13T15:48:46;14.68;;;7.75;;
20296;SDS011;10307;40.100;18.336;2023-02-13T15:51:23;12.88;;;7.85;;
20296;SDS011;10307;40.100;18.336;2023-02-13T15:53:56;17.48;;;9.15;;
20296;SDS011;10307;40.100;18.336;2023-02-13T15:56:24;14.43;;;8.13;;
20296;SDS011;10307;40.100;18.336;2023-02-13T15:58:51;12.73;;;7.10;;
20296;SDS011;10307;40.100;18.336;2023-02-13T16:01:19;16.33;;;7.65;;
20296;SDS011;10307;40.100;18.336;2023-02-13T16:03:47;14.15;;;7.75;;
20296;SDS011;10307;40.100;18.336;2023-02-13T16:06:16;11.32;;;6.32;;
20296;SDS011;10307;40.100;18.336;2023-02-13T16:08:44;19.30;;;9.05;;
20296;SDS011;10307;40.100;18.336;2023-02-13T16:11:39;13.02;;;8.15;;
20296;SDS011;10307;40.100;18.336;2023-02-13T16:14:19;14.95;;;8.93;;
20296;SDS011;10307;40.100;18.336;2023-02-13T16:16:54;12.93;;;7.18;;
20296;SDS011;10307;40.100;18.336;2023-02-13T16:19:33;13.30;;;7.75;;
